sensor_id;sensor_type;location;lat;lon;timestamp;temperature;humidity
21590;DHT22;10957;50.968;6.828;2023-03-11T00:02:05;2.10;99.90
21590;DHT22;10957;50.968;6.828;2023-03-11T00:07:07;2.00;99.90
21590;DHT22;10957;50.968;6.828;2023-03-11T00:12:09;1.90;99.90
21590;DHT22;10957;50.968;6.828;2023-03-11T00:17:10;2.00;99.90
21590;DHT22;10957;50.968;6.828;2023-03-11T00:22:11;2.10;99.90
21590;DHT22;10957;50.968;6.828;2023-03-11T00:32:36;2.00;99.90
21590;DHT22;10957;50.968;6.828;2023-03-11T00:37:37;2.00;99.90
21590;DHT22;10957;50.968;6.828;2023-03-11T00:42:38;1.00;99.90
21590;DHT22;10957;50.968;6.828;2023-03-11T00:47:40;1.60;1.00
21590;DHT22;10957;50.968;6.828;2023-03-11T00:52:41;1.60;1.00
21590;DHT22;10957;50.968;6.828;2023-03-11T00:57:43;1.10;99.90
21590;DHT22;10957;50.968;6.828;2023-03-11T01:02:45;1.90;99.90
21590;DHT22;10957;50.968;6.828;2023-03-11T01:07:47;1.80;99.90
21590;DHT22;10957;50.968;6.828;2023-03-11T01:12:48;1.20;99.90
21590;DHT22;10957;50.968;6.828;2023-03-11T01:17:49;1.90;99.90
21590;DHT22;10957;50.968;6.828;2023-03-11T01:22:51;1.70;99.90
21590;DHT22;10957;50.968;6.828;2023-03-11T01:27:52;1.20;99.90
21590;DHT22;10957;50.968;6.828;2023-03-11T01:32:55;2.00;99.90
21590;DHT22;10957;50.968;6.828;2023-03-11T01:37:57;1.80;99.90
21590;DHT22;10957;50.968;6.828;2023-03-11T01:43:00;1.90;99.90
21590;DHT22;10957;50.968;6.828;2023-03-11T01:48:03;1.90;99.90
21590;DHT22;10957;50.968;6.828;2023-03-11T01:53:06;1.70;99.90
21590;DHT22;10957;50.968;6.828;2023-03-11T01:58:11;1.40;99.90
21590;DHT22;10957;50.968;6.828;2023-03-11T02:03:25;1.40;99.90
21590;DHT22;10957;50.968;6.828;2023-03-11T02:08:28;1.30;99.90
21590;DHT22;10957;50.968;6.828;2023-03-11T02:13:33;1.40;99.90
21590;DHT22;10957;50.968;6.828;2023-03-11T02:18:36;1.10;99.90
21590;DHT22;10957;50.968;6.828;2023-03-11T02:23:54;1.20;99.90
21590;DHT22;10957;50.968;6.828;2023-03-11T02:28:57;1.30;99.90
21590;DHT22;10957;50.968;6.828;2023-03-11T02:34:02;1.20;99.90
21590;DHT22;10957;50.968;6.828;2023-03-11T02:39:06;1.10;99.90
21590;DHT22;10957;50.968;6.828;2023-03-11T02:44:10;0.90;99.90
21590;DHT22;10957;50.968;6.828;2023-03-11T02:49:13;1.20;99.90
21590;DHT22;10957;50.968;6.828;2023-03-11T02:54:15;1.20;99.90
21590;DHT22;10957;50.968;6.828;2023-03-11T02:59:17;0.50;99.90
21590;DHT22;10957;50.968;6.828;2023-03-11T03:04:19;1.10;99.90
21590;DHT22;10957;50.968;6.828;2023-03-11T03:09:20;0.70;99.90
21590;DHT22;10957;50.968;6.828;2023-03-11T03:14:21;0.80;99.90
21590;DHT22;10957;50.968;6.828;2023-03-11T03:19:23;0.70;99.90
21590;DHT22;10957;50.968;6.828;2023-03-11T03:24:25;0.60;99.90
21590;DHT22;10957;50.968;6.828;2023-03-11T03:29:27;0.70;99.90
21590;DHT22;10957;50.968;6.828;2023-03-11T03:34:29;0.20;99.90
21590;DHT22;10957;50.968;6.828;2023-03-11T03:39:31;0.40;99.90
21590;DHT22;10957;50.968;6.828;2023-03-11T03:44:33;0.70;99.90
21590;DHT22;10957;50.968;6.828;2023-03-11T03:49:35;0.60;99.90
21590;DHT22;10957;50.968;6.828;2023-03-11T03:54:37;0.40;99.90
21590;DHT22;10957;50.968;6.828;2023-03-11T03:59:38;0.40;99.90
21590;DHT22;10957;50.968;6.828;2023-03-11T04:04:40;0.40;99.90
21590;DHT22;10957;50.968;6.828;2023-03-11T04:09:43;0.10;99.90
21590;DHT22;10957;50.968;6.828;2023-03-11T04:14:47;0.30;99.90
21590;DHT22;10957;50.968;6.828;2023-03-11T04:19:49;0.60;99.90
21590;DHT22;10957;50.968;6.828;2023-03-11T04:24:51;0.60;99.90
21590;DHT22;10957;50.968;6.828;2023-03-11T04:29:52;0.40;99.90
21590;DHT22;10957;50.968;6.828;2023-03-11T04:34:54;0.50;99.90
21590;DHT22;10957;50.968;6.828;2023-03-11T04:39:55;0.60;99.90
21590;DHT22;10957;50.968;6.828;2023-03-11T04:44:57;0.50;99.90
21590;DHT22;10957;50.968;6.828;2023-03-11T04:49:59;0.40;99.90
21590;DHT22;10957;50.968;6.828;2023-03-11T04:55:01;0.00;99.90
21590;DHT22;10957;50.968;6.828;2023-03-11T05:00:03;0.00;99.90
21590;DHT22;10957;50.968;6.828;2023-03-11T05:05:12;0.40;99.90
21590;DHT22;10957;50.968;6.828;2023-03-11T05:10:16;0.40;99.90
21590;DHT22;10957;50.968;6.828;2023-03-11T05:15:23;0.30;99.90
21590;DHT22;10957;50.968;6.828;2023-03-11T05:20:25;0.40;99.90
21590;DHT22;10957;50.968;6.828;2023-03-11T05:25:26;0.20;99.90
21590;DHT22;10957;50.968;6.828;2023-03-11T05:30:28;0.10;99.90
21590;DHT22;10957;50.968;6.828;2023-03-11T05:35:31;0.20;99.90
21590;DHT22;10957;50.968;6.828;2023-03-11T05:40:32;0.20;99.90
21590;DHT22;10957;50.968;6.828;2023-03-11T05:45:34;0.30;99.90
21590;DHT22;10957;50.968;6.828;2023-03-11T05:50:37;0.10;99.90
21590;DHT22;10957;50.968;6.828;2023-03-11T05:55:38;0.40;99.90
21590;DHT22;10957;50.968;6.828;2023-03-11T06:00:40;-0.10;99.90
21590;DHT22;10957;50.968;6.828;2023-03-11T06:05:46;0.60;99.90
21590;DHT22;10957;50.968;6.828;2023-03-11T06:10:47;0.70;99.90
21590;DHT22;10957;50.968;6.828;2023-03-11T06:15:49;0.60;99.90
21590;DHT22;10957;50.968;6.828;2023-03-11T06:20:50;0.70;99.90
21590;DHT22;10957;50.968;6.828;2023-03-11T06:26:03;0.60;99.90
21590;DHT22;10957;50.968;6.828;2023-03-11T06:31:11;0.40;99.90
21590;DHT22;10957;50.968;6.828;2023-03-11T06:36:19;0.80;99.90
21590;DHT22;10957;50.968;6.828;2023-03-11T06:41:20;0.70;99.90
21590;DHT22;10957;50.968;6.828;2023-03-11T06:46:22;0.60;99.90
21590;DHT22;10957;50.968;6.828;2023-03-11T06:51:25;1.10;99.90
21590;DHT22;10957;50.968;6.828;2023-03-11T06:56:27;1.20;99.90
21590;DHT22;10957;50.968;6.828;2023-03-11T07:01:33;1.20;99.90
21590;DHT22;10957;50.968;6.828;2023-03-11T07:06:39;0.60;99.90
21590;DHT22;10957;50.968;6.828;2023-03-11T07:11:47;1.10;99.90
21590;DHT22;10957;50.968;6.828;2023-03-11T07:16:54;1.10;99.90
21590;DHT22;10957;50.968;6.828;2023-03-11T07:22:07;1.20;99.90
21590;DHT22;10957;50.968;6.828;2023-03-11T07:27:08;1.30;99.90
21590;DHT22;10957;50.968;6.828;2023-03-11T07:32:09;1.20;99.90
21590;DHT22;10957;50.968;6.828;2023-03-11T07:37:10;1.30;99.90
21590;DHT22;10957;50.968;6.828;2023-03-11T07:42:12;1.50;99.90
21590;DHT22;10957;50.968;6.828;2023-03-11T07:47:13;1.50;99.90
21590;DHT22;10957;50.968;6.828;2023-03-11T07:52:14;1.50;99.90
21590;DHT22;10957;50.968;6.828;2023-03-11T07:57:17;2.10;99.90
21590;DHT22;10957;50.968;6.828;2023-03-11T08:02:18;2.00;99.90
21590;DHT22;10957;50.968;6.828;2023-03-11T08:07:19;2.30;99.90
21590;DHT22;10957;50.968;6.828;2023-03-11T08:12:21;2.60;99.90
21590;DHT22;10957;50.968;6.828;2023-03-11T08:17:22;2.60;93.80
21590;DHT22;10957;50.968;6.828;2023-03-11T08:22:23;3.00;61.90
21590;DHT22;10957;50.968;6.828;2023-03-11T08:27:27;3.10;10.30
21590;DHT22;10957;50.968;6.828;2023-03-11T08:32:28;3.30;1.00
21590;DHT22;10957;50.968;6.828;2023-03-11T08:37:31;3.20;1.00
21590;DHT22;10957;50.968;6.828;2023-03-11T08:42:32;3.60;1.00
21590;DHT22;10957;50.968;6.828;2023-03-11T08:47:35;3.90;1.00
21590;DHT22;10957;50.968;6.828;2023-03-11T08:52:37;4.30;1.00
21590;DHT22;10957;50.968;6.828;2023-03-11T08:57:39;4.30;1.00
21590;DHT22;10957;50.968;6.828;2023-03-11T09:02:40;4.60;1.00
21590;DHT22;10957;50.968;6.828;2023-03-11T09:07:41;4.10;1.00
21590;DHT22;10957;50.968;6.828;2023-03-11T09:12:42;4.80;1.00
21590;DHT22;10957;50.968;6.828;2023-03-11T09:17:44;4.40;1.00
21590;DHT22;10957;50.968;6.828;2023-03-11T09:22:45;4.90;1.00
21590;DHT22;10957;50.968;6.828;2023-03-11T09:27:46;5.10;1.00
21590;DHT22;10957;50.968;6.828;2023-03-11T09:32:48;4.90;1.00
21590;DHT22;10957;50.968;6.828;2023-03-11T09:37:49;4.60;1.00
21590;DHT22;10957;50.968;6.828;2023-03-11T09:43:29;4.00;1.00
21590;DHT22;10957;50.968;6.828;2023-03-11T09:54:16;4.90;1.00
21590;DHT22;10957;50.968;6.828;2023-03-11T09:59:26;5.50;1.00
21590;DHT22;10957;50.968;6.828;2023-03-11T10:09:51;5.10;1.00
21590;DHT22;10957;50.968;6.828;2023-03-11T10:20:45;4.90;1.00
21590;DHT22;10957;50.968;6.828;2023-03-11T10:36:23;6.00;99.90
21590;DHT22;10957;50.968;6.828;2023-03-11T10:46:35;5.30;99.90
21590;DHT22;10957;50.968;6.828;2023-03-11T10:51:37;5.40;99.90
21590;DHT22;10957;50.968;6.828;2023-03-11T10:56:39;5.20;99.90
21590;DHT22;10957;50.968;6.828;2023-03-11T11:02:03;5.40;99.90
21590;DHT22;10957;50.968;6.828;2023-03-11T11:07:30;5.40;99.90
21590;DHT22;10957;50.968;6.828;2023-03-11T11:12:31;5.40;99.90
21590;DHT22;10957;50.968;6.828;2023-03-11T11:17:33;5.80;99.90
21590;DHT22;10957;50.968;6.828;2023-03-11T11:22:34;5.50;99.90
21590;DHT22;10957;50.968;6.828;2023-03-11T11:27:36;6.10;99.90
21590;DHT22;10957;50.968;6.828;2023-03-11T11:32:37;5.20;99.90
21590;DHT22;10957;50.968;6.828;2023-03-11T11:37:46;5.90;99.90
21590;DHT22;10957;50.968;6.828;2023-03-11T11:48:44;5.60;99.90
21590;DHT22;10957;50.968;6.828;2023-03-11T11:53:56;5.50;99.90
21590;DHT22;10957;50.968;6.828;2023-03-11T11:59:00;6.20;99.90
21590;DHT22;10957;50.968;6.828;2023-03-11T12:15:30;6.20;99.90
21590;DHT22;10957;50.968;6.828;2023-03-11T12:20:43;5.90;99.90
21590;DHT22;10957;50.968;6.828;2023-03-11T12:25:57;5.80;99.90
21590;DHT22;10957;50.968;6.828;2023-03-11T12:31:03;5.50;99.90
21590;DHT22;10957;50.968;6.828;2023-03-11T12:36:06;5.60;99.90
21590;DHT22;10957;50.968;6.828;2023-03-11T12:41:27;5.80;99.90
21590;DHT22;10957;50.968;6.828;2023-03-11T13:12:52;6.30;99.90
21590;DHT22;10957;50.968;6.828;2023-03-11T13:28:42;5.90;99.90
21590;DHT22;10957;50.968;6.828;2023-03-11T13:33:53;6.30;99.90
21590;DHT22;10957;50.968;6.828;2023-03-11T13:39:18;5.90;99.90
21590;DHT22;10957;50.968;6.828;2023-03-11T13:44:28;5.90;99.90
21590;DHT22;10957;50.968;6.828;2023-03-11T13:55:01;5.60;99.90
21590;DHT22;10957;50.968;6.828;2023-03-11T14:00:15;5.90;99.90
21590;DHT22;10957;50.968;6.828;2023-03-11T14:05:24;6.30;99.90
21590;DHT22;10957;50.968;6.828;2023-03-11T14:10:28;6.50;99.90
21590;DHT22;10957;50.968;6.828;2023-03-11T14:15:38;7.10;99.90
21590;DHT22;10957;50.968;6.828;2023-03-11T14:20:46;7.20;99.90
21590;DHT22;10957;50.968;6.828;2023-03-11T14:25:57;6.90;99.90
21590;DHT22;10957;50.968;6.828;2023-03-11T14:31:01;6.80;99.90
21590;DHT22;10957;50.968;6.828;2023-03-11T14:36:04;7.00;99.90
21590;DHT22;10957;50.968;6.828;2023-03-11T14:41:12;6.70;99.90
21590;DHT22;10957;50.968;6.828;2023-03-11T14:46:26;7.00;99.90
21590;DHT22;10957;50.968;6.828;2023-03-11T14:51:31;6.30;99.90
21590;DHT22;10957;50.968;6.828;2023-03-11T14:56:37;6.90;99.90
21590;DHT22;10957;50.968;6.828;2023-03-11T15:01:42;6.70;99.90
21590;DHT22;10957;50.968;6.828;2023-03-11T15:06:45;6.80;99.90
21590;DHT22;10957;50.968;6.828;2023-03-11T15:11:51;6.50;99.90
21590;DHT22;10957;50.968;6.828;2023-03-11T15:16:54;6.10;99.90
21590;DHT22;10957;50.968;6.828;2023-03-11T15:22:22;6.30;99.90
21590;DHT22;10957;50.968;6.828;2023-03-11T15:27:33;6.00;99.90
21590;DHT22;10957;50.968;6.828;2023-03-11T15:32:40;5.60;99.90
21590;DHT22;10957;50.968;6.828;2023-03-11T15:37:42;5.60;99.90
21590;DHT22;10957;50.968;6.828;2023-03-11T15:42:45;5.60;99.90
21590;DHT22;10957;50.968;6.828;2023-03-11T15:47:48;5.10;99.90
21590;DHT22;10957;50.968;6.828;2023-03-11T15:52:51;5.80;99.90
21590;DHT22;10957;50.968;6.828;2023-03-11T15:58:02;5.10;99.90
21590;DHT22;10957;50.968;6.828;2023-03-11T16:03:05;6.00;99.90
21590;DHT22;10957;50.968;6.828;2023-03-11T16:08:06;5.60;99.90
21590;DHT22;10957;50.968;6.828;2023-03-11T16:13:11;5.40;99.90
21590;DHT22;10957;50.968;6.828;2023-03-11T16:18:13;5.50;99.90
21590;DHT22;10957;50.968;6.828;2023-03-11T16:23:23;5.50;99.90
21590;DHT22;10957;50.968;6.828;2023-03-11T16:28:25;5.60;99.90
21590;DHT22;10957;50.968;6.828;2023-03-11T16:33:27;5.50;99.90
21590;DHT22;10957;50.968;6.828;2023-03-11T16:38:30;4.80;99.90
21590;DHT22;10957;50.968;6.828;2023-03-11T16:43:31;4.90;99.90
21590;DHT22;10957;50.968;6.828;2023-03-11T16:48:33;5.10;99.90
21590;DHT22;10957;50.968;6.828;2023-03-11T16:53:34;4.50;99.90
21590;DHT22;10957;50.968;6.828;2023-03-11T16:58:35;4.30;99.90
21590;DHT22;10957;50.968;6.828;2023-03-11T17:03:37;4.50;99.90
21590;DHT22;10957;50.968;6.828;2023-03-11T17:08:39;4.40;99.90
21590;DHT22;10957;50.968;6.828;2023-03-11T17:13:41;4.40;99.90
21590;DHT22;10957;50.968;6.828;2023-03-11T17:18:42;4.10;99.90
21590;DHT22;10957;50.968;6.828;2023-03-11T17:23:44;3.90;99.90
21590;DHT22;10957;50.968;6.828;2023-03-11T17:28:45;3.60;99.90
21590;DHT22;10957;50.968;6.828;2023-03-11T17:33:46;3.60;99.90
21590;DHT22;10957;50.968;6.828;2023-03-11T17:38:51;3.40;99.90
21590;DHT22;10957;50.968;6.828;2023-03-11T17:43:52;3.40;99.90
21590;DHT22;10957;50.968;6.828;2023-03-11T17:48:54;2.50;99.90
21590;DHT22;10957;50.968;6.828;2023-03-11T17:53:55;2.40;99.90
21590;DHT22;10957;50.968;6.828;2023-03-11T17:58:57;2.70;99.90
21590;DHT22;10957;50.968;6.828;2023-03-11T18:03:58;2.60;99.90
21590;DHT22;10957;50.968;6.828;2023-03-11T18:09:00;2.30;99.90
21590;DHT22;10957;50.968;6.828;2023-03-11T18:14:02;2.30;99.90
21590;DHT22;10957;50.968;6.828;2023-03-11T18:19:03;2.40;99.90
21590;DHT22;10957;50.968;6.828;2023-03-11T18:24:05;2.00;99.90
21590;DHT22;10957;50.968;6.828;2023-03-11T18:29:06;2.00;99.90
21590;DHT22;10957;50.968;6.828;2023-03-11T18:34:08;1.20;99.90
21590;DHT22;10957;50.968;6.828;2023-03-11T18:39:13;1.70;1.00
21590;DHT22;10957;50.968;6.828;2023-03-11T18:49:39;1.60;1.00
21590;DHT22;10957;50.968;6.828;2023-03-11T18:54:41;1.60;1.00
21590;DHT22;10957;50.968;6.828;2023-03-11T18:59:42;1.50;1.00
21590;DHT22;10957;50.968;6.828;2023-03-11T19:04:43;1.50;1.00
21590;DHT22;10957;50.968;6.828;2023-03-11T19:09:47;1.50;1.00
21590;DHT22;10957;50.968;6.828;2023-03-11T19:14:48;0.80;1.00
21590;DHT22;10957;50.968;6.828;2023-03-11T19:19:49;0.70;1.00
21590;DHT22;10957;50.968;6.828;2023-03-11T19:24:52;1.10;1.00
21590;DHT22;10957;50.968;6.828;2023-03-11T19:29:53;1.10;1.00
21590;DHT22;10957;50.968;6.828;2023-03-11T19:34:55;0.80;1.00
21590;DHT22;10957;50.968;6.828;2023-03-11T19:39:56;0.40;1.00
21590;DHT22;10957;50.968;6.828;2023-03-11T19:44:57;0.70;1.00
21590;DHT22;10957;50.968;6.828;2023-03-11T19:49:58;0.40;1.00
21590;DHT22;10957;50.968;6.828;2023-03-11T19:54:59;0.70;1.00
21590;DHT22;10957;50.968;6.828;2023-03-11T20:00:01;0.80;1.00
21590;DHT22;10957;50.968;6.828;2023-03-11T20:05:02;0.60;1.00
21590;DHT22;10957;50.968;6.828;2023-03-11T20:10:04;0.50;1.00
21590;DHT22;10957;50.968;6.828;2023-03-11T20:15:06;0.60;1.00
21590;DHT22;10957;50.968;6.828;2023-03-11T20:20:07;0.50;1.00
21590;DHT22;10957;50.968;6.828;2023-03-11T20:25:09;0.50;1.00
21590;DHT22;10957;50.968;6.828;2023-03-11T20:30:11;0.50;1.00
21590;DHT22;10957;50.968;6.828;2023-03-11T20:35:13;0.30;1.00
21590;DHT22;10957;50.968;6.828;2023-03-11T20:40:16;0.10;1.00
21590;DHT22;10957;50.968;6.828;2023-03-11T20:45:18;0.30;1.00
21590;DHT22;10957;50.968;6.828;2023-03-11T20:50:22;0.30;1.00
21590;DHT22;10957;50.968;6.828;2023-03-11T20:55:23;0.30;1.00
21590;DHT22;10957;50.968;6.828;2023-03-11T21:00:25;0.10;1.00
21590;DHT22;10957;50.968;6.828;2023-03-11T21:05:27;-0.10;1.00
21590;DHT22;10957;50.968;6.828;2023-03-11T21:10:28;0.20;1.00
21590;DHT22;10957;50.968;6.828;2023-03-11T21:15:29;-0.20;1.00
21590;DHT22;10957;50.968;6.828;2023-03-11T21:20:31;0.10;1.00
21590;DHT22;10957;50.968;6.828;2023-03-11T21:25:34;-0.10;1.00
21590;DHT22;10957;50.968;6.828;2023-03-11T21:30:39;0.10;1.00
21590;DHT22;10957;50.968;6.828;2023-03-11T21:35:41;-0.10;2.70
21590;DHT22;10957;50.968;6.828;2023-03-11T21:40:42;-0.10;7.40
21590;DHT22;10957;50.968;6.828;2023-03-11T21:45:44;-0.20;16.50
21590;DHT22;10957;50.968;6.828;2023-03-11T21:50:46;-0.50;36.30
21590;DHT22;10957;50.968;6.828;2023-03-11T21:55:50;-0.20;53.00
21590;DHT22;10957;50.968;6.828;2023-03-11T22:00:52;0.20;60.70
21590;DHT22;10957;50.968;6.828;2023-03-11T22:06:01;-0.30;41.90
21590;DHT22;10957;50.968;6.828;2023-03-11T22:11:06;0.20;24.10
21590;DHT22;10957;50.968;6.828;2023-03-11T22:16:09;0.20;4.10
21590;DHT22;10957;50.968;6.828;2023-03-11T22:21:10;0.30;1.00
21590;DHT22;10957;50.968;6.828;2023-03-11T22:26:12;0.20;1.00
21590;DHT22;10957;50.968;6.828;2023-03-11T22:31:14;0.20;1.00
21590;DHT22;10957;50.968;6.828;2023-03-11T22:36:15;0.30;1.00
21590;DHT22;10957;50.968;6.828;2023-03-11T22:41:16;0.60;1.00
21590;DHT22;10957;50.968;6.828;2023-03-11T22:46:19;-0.10;1.00
21590;DHT22;10957;50.968;6.828;2023-03-11T22:51:20;0.50;1.00
21590;DHT22;10957;50.968;6.828;2023-03-11T22:56:22;0.40;1.00
21590;DHT22;10957;50.968;6.828;2023-03-11T23:01:23;0.80;1.00
21590;DHT22;10957;50.968;6.828;2023-03-11T23:06:24;0.70;1.00
21590;DHT22;10957;50.968;6.828;2023-03-11T23:11:26;0.60;1.00
21590;DHT22;10957;50.968;6.828;2023-03-11T23:16:27;0.90;1.00
21590;DHT22;10957;50.968;6.828;2023-03-11T23:21:32;1.10;1.00
21590;DHT22;10957;50.968;6.828;2023-03-11T23:26:34;0.80;1.00
21590;DHT22;10957;50.968;6.828;2023-03-11T23:31:35;1.10;1.00
21590;DHT22;10957;50.968;6.828;2023-03-11T23:36:36;0.90;1.00
21590;DHT22;10957;50.968;6.828;2023-03-11T23:41:38;1.20;1.00
21590;DHT22;10957;50.968;6.828;2023-03-11T23:46:39;1.00;1.00
21590;DHT22;10957;50.968;6.828;2023-03-11T23:51:40;1.10;1.00
21590;DHT22;10957;50.968;6.828;2023-03-11T23:56:42;1.20;1.00
